createdAt,value
2017-11-01T00:00:51.767Z,17.30
2017-11-01T00:03:19.251Z,18.23
2017-11-01T00:05:46.751Z,19.23
2017-11-01T00:08:14.306Z,23.60
2017-11-01T00:10:41.791Z,16.80
2017-11-01T00:13:09.279Z,21.50
2017-11-01T00:15:36.812Z,20.10
2017-11-01T00:18:04.292Z,17.70
2017-11-01T00:20:31.783Z,16.90
2017-11-01T00:22:59.337Z,18.10
2017-11-01T00:25:26.820Z,17.40
2017-11-01T00:27:54.390Z,19.10
2017-11-01T00:30:21.952Z,18.30
2017-11-01T00:32:49.431Z,18.20
2017-11-01T00:35:16.910Z,15.40
2017-11-01T00:37:44.423Z,23.77
2017-11-01T00:40:11.955Z,26.37
2017-11-01T00:42:39.488Z,16.90
2017-11-01T00:45:06.970Z,18.57
2017-11-01T00:47:34.461Z,18.43
2017-11-01T00:52:35.884Z,24.07
2017-11-01T00:55:03.415Z,21.07
2017-11-01T00:57:30.901Z,18.50
2017-11-01T00:59:58.393Z,18.90
2017-11-01T01:02:25.915Z,19.20
2017-11-01T01:04:53.400Z,21.63
2017-11-01T01:07:20.890Z,25.27
2017-11-01T01:09:48.425Z,22.60
2017-11-01T01:12:15.915Z,18.57
2017-11-01T01:14:43.404Z,27.73
2017-11-01T01:17:10.940Z,19.70
2017-11-01T01:19:38.420Z,19.10
2017-11-01T01:22:05.903Z,27.33
2017-11-01T01:24:33.437Z,22.87
2017-11-01T01:27:01.026Z,31.77
2017-11-01T01:29:28.565Z,19.27
2017-11-01T01:31:56.051Z,23.43
2017-11-01T01:34:23.535Z,29.37
2017-11-01T01:36:51.048Z,35.63
2017-11-01T01:39:18.570Z,29.00
2017-11-01T01:41:46.296Z,29.17
2017-11-01T01:44:13.848Z,31.17
2017-11-01T01:46:41.364Z,33.97
2017-11-01T01:49:08.849Z,30.93
2017-11-01T01:51:36.335Z,32.17
2017-11-01T01:54:03.860Z,30.90
2017-11-01T01:56:31.343Z,32.47
2017-11-01T01:58:58.833Z,29.63
2017-11-01T02:01:26.441Z,34.43
2017-11-01T02:03:53.931Z,35.53
2017-11-01T02:06:21.423Z,33.17
2017-11-01T02:08:48.962Z,35.80
2017-11-01T02:11:16.471Z,28.70
2017-11-01T02:13:43.956Z,37.20
2017-11-01T02:16:11.589Z,33.90
2017-11-01T02:18:39.076Z,38.60
2017-11-01T02:21:06.556Z,37.27
2017-11-01T02:23:34.111Z,37.77
2017-11-01T02:26:01.603Z,39.50
2017-11-01T02:28:29.092Z,32.17
2017-11-01T02:30:56.625Z,42.00
2017-11-01T02:33:24.126Z,35.77
2017-11-01T02:35:51.611Z,36.13
2017-11-01T02:38:19.204Z,40.07
2017-11-01T02:40:46.705Z,37.70
2017-11-01T02:43:14.195Z,41.63
2017-11-01T02:45:41.736Z,35.33
2017-11-01T02:48:09.240Z,34.23
2017-11-01T02:50:36.732Z,35.30
2017-11-01T02:53:04.252Z,33.43
2017-11-01T02:55:31.738Z,39.27
2017-11-01T02:57:59.228Z,35.10
2017-11-01T03:00:26.856Z,42.07
2017-11-01T03:02:54.347Z,32.83
2017-11-01T03:05:21.823Z,36.90
2017-11-01T03:07:49.402Z,37.80
2017-11-01T03:10:16.970Z,46.33
2017-11-01T03:12:44.464Z,40.80
2017-11-01T03:15:11.976Z,37.57
2017-11-01T03:17:39.487Z,35.40
2017-11-01T03:20:07.024Z,34.40
2017-11-01T03:22:34.557Z,37.43
2017-11-01T03:25:02.044Z,31.80
2017-11-01T03:27:29.675Z,46.33
2017-11-01T03:29:57.177Z,41.37
2017-11-01T03:32:24.665Z,37.43
2017-11-01T03:34:52.175Z,45.50
2017-11-01T03:37:19.656Z,40.77
2017-11-01T03:39:47.172Z,51.07
2017-11-01T03:42:14.736Z,42.10
2017-11-01T03:44:42.308Z,40.13
2017-11-01T03:47:09.819Z,37.73
2017-11-01T03:49:37.309Z,37.00
2017-11-01T03:52:04.863Z,42.80
2017-11-01T03:54:32.352Z,37.50
2017-11-01T03:56:59.836Z,42.20
2017-11-01T03:59:27.354Z,47.13
2017-11-01T04:01:54.843Z,48.23
2017-11-01T04:04:22.365Z,41.30
2017-11-01T04:06:49.868Z,45.93
2017-11-01T04:09:17.409Z,42.90
2017-11-01T04:11:44.928Z,47.13
2017-11-01T04:14:12.417Z,40.10
2017-11-01T04:16:39.966Z,44.80
2017-11-01T04:19:09.389Z,44.43
2017-11-01T04:21:38.855Z,44.17
2017-11-01T04:24:06.390Z,54.17
2017-11-01T04:26:33.963Z,46.90
2017-11-01T04:29:01.447Z,54.00
2017-11-01T04:31:28.995Z,45.30
2017-11-01T04:33:56.483Z,51.97
2017-11-01T04:36:23.977Z,53.93
2017-11-01T04:38:51.511Z,58.30
2017-11-01T04:41:19.052Z,45.03
2017-11-01T04:43:46.538Z,44.27
2017-11-01T04:46:14.084Z,45.00
2017-11-01T04:48:41.572Z,48.30
2017-11-01T04:51:10.969Z,42.10
2017-11-01T04:53:40.288Z,51.17
2017-11-01T04:56:10.766Z,44.90
2017-11-01T04:58:38.254Z,43.60
2017-11-01T05:01:05.747Z,49.10
2017-11-01T05:03:33.287Z,41.87
2017-11-01T05:06:00.786Z,49.83
2017-11-01T05:08:33.849Z,42.63
2017-11-01T05:11:06.872Z,44.57
2017-11-01T05:13:35.187Z,48.57
2017-11-01T05:16:03.462Z,40.87
2017-11-01T05:18:30.950Z,42.70
2017-11-01T05:20:58.488Z,46.33
2017-11-01T05:23:26.067Z,48.93
2017-11-01T05:25:55.463Z,42.43
2017-11-01T05:28:22.971Z,46.80
2017-11-01T05:30:50.509Z,42.90
2017-11-01T05:33:18.001Z,46.27
2017-11-01T05:35:45.495Z,41.90
2017-11-01T05:38:13.029Z,45.93
2017-11-01T05:40:40.525Z,37.77
2017-11-01T05:43:08.075Z,45.20
2017-11-01T05:45:35.603Z,55.83
2017-11-01T05:48:03.104Z,50.77
2017-11-01T05:50:33.608Z,38.20
2017-11-01T05:53:01.375Z,37.07
2017-11-01T05:55:28.859Z,31.70
2017-11-01T05:57:56.343Z,34.80
2017-11-01T06:00:24.159Z,30.57
2017-11-01T06:02:51.646Z,40.23
2017-11-01T06:05:19.185Z,40.93
2017-11-01T06:07:46.708Z,39.50
2017-11-01T06:10:14.202Z,29.37
2017-11-01T06:12:41.774Z,61.30
2017-11-01T06:15:09.515Z,43.03
2017-11-01T06:17:37.003Z,30.77
2017-11-01T06:20:04.499Z,31.60
2017-11-01T06:22:32.012Z,42.23
2017-11-01T06:24:59.538Z,40.50
2017-11-01T06:27:27.057Z,41.83
2017-11-01T06:29:54.546Z,30.00
2017-11-01T06:32:22.118Z,35.40
2017-11-01T06:34:49.644Z,49.97
2017-11-01T06:37:17.134Z,60.70
2017-11-01T06:39:44.695Z,34.43
2017-11-01T06:42:12.259Z,33.10
2017-11-01T06:44:39.977Z,32.83
2017-11-01T06:47:07.484Z,26.87
2017-11-01T06:49:35.028Z,29.53
2017-11-01T06:52:02.508Z,49.03
2017-11-01T06:54:30.000Z,29.47
2017-11-01T06:56:57.511Z,136.90
2017-11-01T06:59:25.075Z,161.27
2017-11-01T07:01:52.601Z,60.37
2017-11-01T07:04:20.097Z,31.60
2017-11-01T07:06:47.588Z,30.77
2017-11-01T07:09:15.118Z,73.93
2017-11-01T07:11:42.685Z,311.60
2017-11-01T07:14:10.168Z,54.23
2017-11-01T07:16:37.731Z,87.30
2017-11-01T07:19:05.230Z,30.13
2017-11-01T07:21:32.800Z,27.73
2017-11-01T07:24:00.317Z,57.03
2017-11-01T07:26:27.916Z,74.73
2017-11-01T07:28:55.424Z,100.23
2017-11-01T07:31:22.946Z,38.00
2017-11-01T07:33:50.472Z,274.40
2017-11-01T07:36:17.960Z,96.40
2017-11-01T07:38:45.454Z,26.93
2017-11-01T07:41:13.082Z,37.53
2017-11-01T07:43:40.577Z,29.10
2017-11-01T07:46:08.093Z,32.80
2017-11-01T07:48:35.656Z,32.60
2017-11-01T07:51:03.211Z,27.17
2017-11-01T07:53:30.691Z,31.07
2017-11-01T07:55:58.236Z,34.07
2017-11-01T07:58:25.782Z,35.30
2017-11-01T08:00:53.272Z,38.03
2017-11-01T08:03:20.800Z,38.37
2017-11-01T08:05:48.287Z,28.07
2017-11-01T08:08:15.781Z,36.27
2017-11-01T08:10:43.305Z,34.27
2017-11-01T08:13:10.795Z,30.93
2017-11-01T08:15:38.286Z,53.00
2017-11-01T08:18:05.795Z,95.07
2017-11-01T08:20:33.313Z,26.50
2017-11-01T08:23:00.833Z,52.80
2017-11-01T08:25:28.321Z,45.03
2017-11-01T08:27:55.826Z,67.53
2017-11-01T08:30:23.348Z,20.47
2017-11-01T08:32:50.836Z,17.10
2017-11-01T08:35:18.340Z,16.50
2017-11-01T08:37:45.924Z,32.03
2017-11-01T08:40:13.427Z,15.20
2017-11-01T08:42:41.048Z,17.00
2017-11-01T08:45:08.605Z,19.47
2017-11-01T08:47:36.093Z,21.00
2017-11-01T08:50:03.612Z,13.30
2017-11-01T08:52:31.140Z,13.10
2017-11-01T08:54:58.726Z,13.27
2017-11-01T08:57:26.219Z,11.87
2017-11-01T08:59:53.751Z,12.50
2017-11-01T09:02:21.244Z,15.13
2017-11-01T09:04:48.729Z,12.30
2017-11-01T09:07:16.256Z,12.30
2017-11-01T09:09:43.752Z,15.03
2017-11-01T09:12:11.237Z,16.33
2017-11-01T09:14:38.772Z,8.50
2017-11-01T09:17:06.272Z,16.47
2017-11-01T09:19:33.809Z,11.70
2017-11-01T09:22:01.351Z,11.37
2017-11-01T09:24:28.944Z,11.30
2017-11-01T09:26:56.427Z,12.83
2017-11-01T09:29:23.959Z,12.53
2017-11-01T09:31:51.443Z,15.97
2017-11-01T09:34:18.945Z,13.20
2017-11-01T09:36:46.481Z,14.27
2017-11-01T09:39:13.987Z,14.90
2017-11-01T09:41:41.475Z,12.90
2017-11-01T09:44:09.012Z,10.30
2017-11-01T09:46:36.546Z,8.07
2017-11-01T09:49:04.117Z,10.80
2017-11-01T09:51:31.611Z,16.53
2017-11-01T09:53:59.249Z,12.30
2017-11-01T09:56:26.796Z,14.20
2017-11-01T09:58:54.276Z,9.97
2017-11-01T10:01:21.767Z,10.07
2017-11-01T10:03:49.279Z,19.20
2017-11-01T10:06:16.769Z,12.13
2017-11-01T10:08:44.304Z,16.13
2017-11-01T10:11:11.791Z,11.80
2017-11-01T10:13:39.275Z,15.00
2017-11-01T10:16:06.804Z,11.20
2017-11-01T10:18:34.316Z,18.67
2017-11-01T10:21:01.811Z,17.60
2017-11-01T10:23:29.444Z,17.33
2017-11-01T10:25:56.935Z,22.90
2017-11-01T10:28:24.442Z,21.13
2017-11-01T10:30:52.007Z,19.97
2017-11-01T10:33:19.496Z,24.13
2017-11-01T10:35:47.038Z,22.00
2017-11-01T10:38:14.530Z,20.20
2017-11-01T10:40:42.018Z,24.80
2017-11-01T10:43:09.548Z,26.50
2017-11-01T10:45:37.052Z,27.07
2017-11-01T10:48:04.615Z,32.60
2017-11-01T10:50:32.143Z,23.00
2017-11-01T10:52:59.686Z,27.13
2017-11-01T10:55:27.181Z,32.53
2017-11-01T10:57:54.687Z,29.90
2017-11-01T11:00:22.323Z,36.90
2017-11-01T11:02:49.832Z,28.10
2017-11-01T11:05:17.372Z,35.33
2017-11-01T11:07:44.860Z,36.63
2017-11-01T11:10:12.363Z,37.50
2017-11-01T11:12:39.883Z,39.70
2017-11-01T11:15:07.456Z,37.77
2017-11-01T11:17:34.955Z,38.03
2017-11-01T11:20:02.484Z,37.20
2017-11-01T11:22:29.976Z,44.70
2017-11-01T11:24:57.470Z,42.10
2017-11-01T11:27:25.003Z,39.30
2017-11-01T11:29:52.518Z,48.80
2017-11-01T11:32:20.043Z,42.40
2017-11-01T11:34:47.566Z,47.30
2017-11-01T11:37:15.067Z,42.23
2017-11-01T11:39:42.640Z,41.03
2017-11-01T11:42:10.173Z,53.47
2017-11-01T11:44:37.666Z,49.90
2017-11-01T11:47:05.163Z,48.53
2017-11-01T11:49:32.693Z,51.47
2017-11-01T11:52:00.200Z,55.90
2017-11-01T11:54:27.701Z,50.23
2017-11-01T11:56:55.240Z,45.63
2017-11-01T11:59:22.832Z,49.27
2017-11-01T12:01:50.325Z,55.40
2017-11-01T12:04:17.861Z,44.43
2017-11-01T12:06:45.354Z,44.97
2017-11-01T12:09:12.912Z,46.50
2017-11-01T12:11:40.429Z,54.40
2017-11-01T12:14:07.949Z,40.70
2017-11-01T12:16:35.441Z,37.00
2017-11-01T12:19:02.931Z,46.27
2017-11-01T12:21:30.596Z,43.97
2017-11-01T12:23:58.090Z,44.37
2017-11-01T12:26:25.584Z,38.53
2017-11-01T12:28:53.120Z,40.87
2017-11-01T12:31:20.620Z,47.87
2017-11-01T12:33:48.108Z,31.53
2017-11-01T12:36:15.651Z,32.70
2017-11-01T12:38:43.147Z,88.90
2017-11-01T12:41:10.646Z,38.27
2017-11-01T12:43:38.268Z,34.37
2017-11-01T12:46:05.766Z,36.43
2017-11-01T12:48:33.381Z,38.87
2017-11-01T12:51:00.938Z,43.80
2017-11-01T12:53:28.504Z,42.30
2017-11-01T12:55:56.044Z,41.70
2017-11-01T12:58:23.642Z,45.70
2017-11-01T13:00:51.154Z,43.00
2017-11-01T13:03:18.699Z,48.67
2017-11-01T13:05:46.195Z,44.33
2017-11-01T13:08:13.703Z,41.27
2017-11-01T13:10:41.215Z,40.47
2017-11-01T13:13:08.715Z,42.00
2017-11-01T13:15:36.238Z,47.80
2017-11-01T13:18:03.735Z,48.50
2017-11-01T13:20:31.241Z,45.43
2017-11-01T13:22:58.761Z,44.47
2017-11-01T13:25:26.264Z,53.90
2017-11-01T13:27:53.785Z,41.97
2017-11-01T13:30:21.271Z,40.77
2017-11-01T13:32:48.812Z,45.20
2017-11-01T13:35:16.299Z,40.67
2017-11-01T13:37:43.883Z,39.10
2017-11-01T13:40:11.466Z,50.13
2017-11-01T13:42:38.956Z,52.17
2017-11-01T13:45:06.449Z,48.00
2017-11-01T13:47:34.011Z,43.50
2017-11-01T13:50:01.507Z,40.80
2017-11-01T13:52:28.997Z,43.23
2017-11-01T13:54:56.567Z,59.97
2017-11-01T13:57:24.062Z,44.10
2017-11-01T13:59:51.563Z,50.10
2017-11-01T14:02:19.088Z,72.60
2017-11-01T14:04:46.609Z,57.30
2017-11-01T14:07:14.106Z,49.37
2017-11-01T14:09:41.659Z,49.67
2017-11-01T14:12:09.172Z,55.47
2017-11-01T14:14:36.686Z,49.33
2017-11-01T14:17:04.297Z,46.00
2017-11-01T14:19:31.789Z,48.37
2017-11-01T14:21:59.340Z,48.23
2017-11-01T14:24:26.831Z,49.40
2017-11-01T14:26:54.424Z,67.87
2017-11-01T14:29:22.002Z,55.47
2017-11-01T14:31:49.489Z,64.63
2017-11-01T14:34:16.979Z,54.30
2017-11-01T14:36:44.527Z,76.57
2017-11-01T14:39:12.040Z,68.53
2017-11-01T14:41:39.532Z,65.47
2017-11-01T14:44:07.140Z,60.40
2017-11-01T14:46:34.700Z,53.03
2017-11-01T14:49:02.283Z,55.10
2017-11-01T14:51:29.797Z,56.23
2017-11-01T14:53:57.357Z,61.07
2017-11-01T14:56:24.878Z,55.30
2017-11-01T14:58:52.384Z,48.77
2017-11-01T15:01:19.927Z,57.43
2017-11-01T15:03:47.418Z,61.73
2017-11-01T15:06:14.968Z,47.47
2017-11-01T15:08:42.499Z,51.80
2017-11-01T15:11:10.009Z,61.80
2017-11-01T15:13:37.504Z,52.37
2017-11-01T15:16:05.023Z,47.63
2017-11-01T15:18:32.515Z,62.17
2017-11-01T15:21:00.038Z,60.17
2017-11-01T15:23:27.591Z,60.23
2017-11-01T15:25:55.113Z,62.60
2017-11-01T15:28:22.606Z,61.00
2017-11-01T15:30:50.159Z,65.80
2017-11-01T15:33:17.700Z,70.07
2017-11-01T15:35:45.193Z,59.30
2017-11-01T15:38:12.684Z,67.53
2017-11-01T15:40:40.216Z,78.03
2017-11-01T15:43:07.716Z,60.90
2017-11-01T15:45:35.306Z,74.70
2017-11-01T15:48:02.834Z,70.93
2017-11-01T15:50:30.391Z,87.70
2017-11-01T15:52:57.884Z,65.33
2017-11-01T15:55:25.452Z,72.40
2017-11-01T15:57:53.930Z,86.33
2017-11-01T16:00:21.481Z,84.47
2017-11-01T16:02:49.048Z,66.23
2017-11-01T16:05:16.597Z,76.07
2017-11-01T16:07:44.088Z,73.87
2017-11-01T16:10:11.615Z,77.30
2017-11-01T16:12:39.116Z,64.80
2017-11-01T16:15:06.636Z,66.90
2017-11-01T16:17:34.200Z,76.33
2017-11-01T16:20:01.692Z,73.07
2017-11-01T16:22:29.215Z,84.83
2017-11-01T16:24:56.727Z,75.67
2017-11-01T16:27:24.277Z,74.33
2017-11-01T16:29:51.799Z,86.70
2017-11-01T16:32:19.350Z,63.93
2017-11-01T16:34:46.874Z,74.43
2017-11-01T16:37:14.392Z,85.70
2017-11-01T16:39:41.916Z,96.53
2017-11-01T16:42:09.502Z,82.07
2017-11-01T16:44:36.991Z,85.43
2017-11-01T16:47:04.528Z,65.90
2017-11-01T16:49:32.050Z,76.67
2017-11-01T16:51:59.618Z,80.90
2017-11-01T16:54:27.152Z,71.07
2017-11-01T16:56:54.639Z,85.50
2017-11-01T16:59:22.137Z,70.23
2017-11-01T17:01:49.680Z,72.73
2017-11-01T17:04:17.178Z,73.90
2017-11-01T17:06:44.684Z,68.90
2017-11-01T17:09:12.227Z,79.57
2017-11-01T17:11:39.720Z,83.70
2017-11-01T17:14:07.238Z,76.03
2017-11-01T17:16:34.769Z,74.37
2017-11-01T17:19:02.380Z,76.63
2017-11-01T17:21:29.873Z,72.20
2017-11-01T17:23:57.402Z,69.17
2017-11-01T17:26:24.887Z,84.73
2017-11-01T17:28:52.388Z,86.10
2017-11-01T17:31:19.909Z,72.40
2017-11-01T17:33:47.510Z,69.73
2017-11-01T17:36:15.001Z,72.50
2017-11-01T17:38:42.632Z,77.23
2017-11-01T17:41:10.126Z,71.83
2017-11-01T17:43:37.628Z,76.13
2017-11-01T17:46:05.145Z,74.50
2017-11-01T17:48:32.645Z,75.87
2017-11-01T17:51:00.164Z,78.07
2017-11-01T17:53:27.673Z,78.30
2017-11-01T17:55:55.186Z,83.33
2017-11-01T17:58:22.724Z,77.67
2017-11-01T18:00:50.281Z,82.53
2017-11-01T18:03:17.771Z,65.20
2017-11-01T18:05:45.333Z,74.67
2017-11-01T18:08:12.825Z,75.77
2017-11-01T18:10:40.316Z,66.60
2017-11-01T18:13:07.848Z,78.50
2017-11-01T18:15:35.338Z,78.30
2017-11-01T18:18:02.879Z,75.67
2017-11-01T18:20:30.393Z,74.70
2017-11-01T18:22:57.893Z,82.60
2017-11-01T18:25:25.424Z,75.37
2017-11-01T18:27:52.999Z,73.70
2017-11-01T18:30:20.500Z,74.30
2017-11-01T18:32:48.009Z,66.23
2017-11-01T18:35:15.572Z,76.37
2017-11-01T18:37:43.072Z,79.57
2017-11-01T18:40:10.570Z,77.27
2017-11-01T18:42:38.128Z,63.67
2017-11-01T18:45:05.706Z,81.07
2017-11-01T18:47:33.206Z,81.83
2017-11-01T18:50:00.731Z,71.27
2017-11-01T18:52:28.221Z,74.27
2017-11-01T18:54:55.777Z,68.33
2017-11-01T18:57:23.271Z,84.97
2017-11-01T18:59:50.884Z,73.10
2017-11-01T19:02:18.436Z,69.23
2017-11-01T19:04:45.946Z,65.33
2017-11-01T19:07:13.475Z,74.50
2017-11-01T19:09:40.968Z,74.53
2017-11-01T19:12:08.503Z,73.33
2017-11-01T19:14:36.019Z,72.37
2017-11-01T19:17:03.509Z,75.67
2017-11-01T19:19:31.047Z,65.80
2017-11-01T19:21:58.591Z,79.37
2017-11-01T19:24:26.145Z,62.77
2017-11-01T19:26:53.718Z,87.17
2017-11-01T19:29:21.246Z,78.73
2017-11-01T19:31:48.733Z,66.00
2017-11-01T19:34:16.269Z,66.80
2017-11-01T19:36:43.758Z,78.07
2017-11-01T19:39:11.272Z,65.90
2017-11-01T19:41:38.831Z,77.40
2017-11-01T19:44:06.334Z,66.67
2017-11-01T19:46:33.881Z,68.30
2017-11-01T19:49:01.404Z,64.53
2017-11-01T19:51:28.896Z,76.27
2017-11-01T19:53:56.554Z,78.50
2017-11-01T19:56:24.056Z,65.93
2017-11-01T19:58:51.556Z,94.20
2017-11-01T20:01:19.086Z,90.93
2017-11-01T20:03:46.588Z,85.50
2017-11-01T20:06:14.092Z,88.63
2017-11-01T20:08:41.625Z,98.60
2017-11-01T20:11:09.123Z,86.07
2017-11-01T20:13:36.616Z,70.17
2017-11-01T20:16:05.140Z,89.77
2017-11-01T20:18:32.664Z,77.20
2017-11-01T20:21:00.215Z,61.00
2017-11-01T20:23:27.739Z,77.40
2017-11-01T20:25:55.356Z,85.53
2017-11-01T20:28:22.883Z,74.00
2017-11-01T20:30:50.374Z,92.20
2017-11-01T20:33:17.875Z,89.30
2017-11-01T20:35:45.466Z,63.77
2017-11-01T20:38:12.960Z,72.30
2017-11-01T20:40:40.493Z,91.90
2017-11-01T20:43:08.045Z,77.63
2017-11-01T20:45:35.543Z,68.33
2017-11-01T20:48:03.031Z,76.97
2017-11-01T20:50:30.567Z,62.60
2017-11-01T20:52:58.056Z,77.83
2017-11-01T20:55:25.635Z,85.77
2017-11-01T20:57:53.156Z,97.77
2017-11-01T21:00:20.653Z,68.70
2017-11-01T21:02:48.218Z,53.93
2017-11-01T21:05:15.713Z,77.07
2017-11-01T21:07:43.205Z,84.30
2017-11-01T21:10:10.740Z,72.97
2017-11-01T21:12:38.232Z,72.93
2017-11-01T21:15:05.735Z,82.87
2017-11-01T21:17:33.267Z,70.30
2017-11-01T21:20:00.800Z,71.43
2017-11-01T21:22:28.293Z,75.67
2017-11-01T21:24:55.792Z,71.07
2017-11-01T21:27:23.394Z,61.70
2017-11-01T21:29:50.947Z,71.90
2017-11-01T21:32:18.441Z,70.90
2017-11-01T21:34:45.992Z,79.33
2017-11-01T21:37:13.493Z,61.13
2017-11-01T21:39:41.146Z,62.43
2017-11-01T21:42:08.675Z,72.00
2017-11-01T21:44:36.172Z,62.43
2017-11-01T21:47:03.677Z,50.67
2017-11-01T21:49:31.233Z,62.53
2017-11-01T21:51:58.789Z,64.03
2017-11-01T21:54:26.289Z,69.50
2017-11-01T21:56:53.810Z,45.80
2017-11-01T21:59:21.299Z,50.43
2017-11-01T22:01:48.805Z,65.77
2017-11-01T22:04:16.345Z,49.20
2017-11-01T22:06:43.844Z,44.90
2017-11-01T22:09:11.358Z,49.50
2017-11-01T22:11:38.953Z,46.37
2017-11-01T22:14:06.513Z,55.73
2017-11-01T22:16:34.005Z,46.50
2017-11-01T22:19:01.630Z,52.60
2017-11-01T22:21:29.127Z,55.40
2017-11-01T22:23:56.619Z,55.30
2017-11-01T22:26:24.146Z,45.70
2017-11-01T22:28:51.653Z,56.73
2017-11-01T22:31:19.192Z,39.23
2017-11-01T22:33:46.692Z,47.63
2017-11-01T22:36:14.185Z,44.20
2017-11-01T22:38:41.756Z,36.40
2017-11-01T22:41:09.257Z,45.50
2017-11-01T22:43:36.812Z,42.63
2017-11-01T22:46:04.339Z,47.93
2017-11-01T22:48:31.831Z,38.17
2017-11-01T22:50:59.328Z,52.97
2017-11-01T22:53:26.885Z,50.00
2017-11-01T22:55:54.378Z,50.90
2017-11-01T22:58:21.877Z,65.50
2017-11-01T23:00:49.425Z,47.33
2017-11-01T23:03:16.917Z,43.30
2017-11-01T23:05:44.420Z,43.50
2017-11-01T23:08:11.955Z,46.43
2017-11-01T23:10:39.456Z,42.93
2017-11-01T23:13:06.949Z,47.43
2017-11-01T23:15:34.581Z,40.97
2017-11-01T23:18:02.077Z,44.57
2017-11-01T23:20:29.574Z,41.50
2017-11-01T23:22:57.144Z,52.83
2017-11-01T23:25:24.649Z,48.63
2017-11-01T23:27:52.168Z,45.27
2017-11-01T23:30:19.696Z,39.80
2017-11-01T23:32:47.265Z,44.43
2017-11-01T23:35:14.809Z,40.83
2017-11-01T23:37:42.405Z,41.50
2017-11-01T23:40:09.896Z,37.93
2017-11-01T23:42:37.531Z,40.10
2017-11-01T23:45:05.080Z,37.50
2017-11-01T23:47:32.576Z,36.87
2017-11-01T23:50:00.116Z,37.07
2017-11-01T23:52:27.614Z,41.10
2017-11-01T23:54:55.124Z,30.17
2017-11-01T23:57:22.680Z,33.20
2017-11-01T23:59:50.168Z,36.63
